createdAt,value
2019-01-27T00:00:11.437Z,92.91
2019-01-27T00:01:11.298Z,93.22
2019-01-27T00:02:11.325Z,93.07
2019-01-27T00:03:11.388Z,93.01
2019-01-27T00:04:11.288Z,92.86
2019-01-27T00:05:11.253Z,93.12
2019-01-27T00:06:11.482Z,93.73
2019-01-27T00:07:11.248Z,93.94
2019-01-27T00:08:13.533Z,93.32
2019-01-27T00:09:11.271Z,93.59
2019-01-27T00:10:11.204Z,93.63
2019-01-27T00:11:11.348Z,93.73
2019-01-27T00:12:11.228Z,94.00
2019-01-27T00:13:11.187Z,93.22
2019-01-27T00:14:11.248Z,93.69
2019-01-27T00:15:11.203Z,93.63
2019-01-27T00:16:11.159Z,93.12
2019-01-27T00:17:11.135Z,93.32
2019-01-27T00:18:11.130Z,93.07
2019-01-27T00:19:11.281Z,93.12
2019-01-27T00:20:11.213Z,93.59
2019-01-27T00:21:11.212Z,93.73
2019-01-27T00:22:11.073Z,93.84
2019-01-27T00:23:11.088Z,94.15
2019-01-27T00:24:11.108Z,94.15
2019-01-27T00:25:11.180Z,93.94
2019-01-27T00:26:11.087Z,94.04
2019-01-27T00:27:11.025Z,93.63
2019-01-27T00:28:11.010Z,93.43
2019-01-27T00:29:11.030Z,93.22
2019-01-27T00:30:11.122Z,92.97
2019-01-27T00:31:10.979Z,93.63
2019-01-27T00:32:10.972Z,93.73
2019-01-27T00:33:11.105Z,93.43
2019-01-27T00:34:11.001Z,93.63
2019-01-27T00:35:11.020Z,93.73
2019-01-27T00:36:10.970Z,94.15
2019-01-27T00:37:10.927Z,93.59
2019-01-27T00:38:10.978Z,93.18
2019-01-27T00:39:10.924Z,92.97
2019-01-27T00:40:10.926Z,93.28
2019-01-27T00:41:10.871Z,93.69
2019-01-27T00:42:10.866Z,93.07
2019-01-27T00:43:10.939Z,93.28
2019-01-27T00:44:11.161Z,93.07
2019-01-27T00:45:10.985Z,93.38
2019-01-27T00:46:10.815Z,93.28
2019-01-27T00:47:11.303Z,93.38
2019-01-27T00:48:10.803Z,93.28
2019-01-27T00:49:10.816Z,93.28
2019-01-27T00:50:10.813Z,92.76
2019-01-27T00:51:10.812Z,93.07
2019-01-27T00:52:10.751Z,93.59
2019-01-27T00:53:10.792Z,93.18
2019-01-27T00:54:10.735Z,93.18
2019-01-27T00:55:10.722Z,93.07
2019-01-27T00:56:10.745Z,93.28
2019-01-27T00:57:10.749Z,93.49
2019-01-27T00:58:10.823Z,93.07
2019-01-27T00:59:10.840Z,93.49
2019-01-27T01:00:10.786Z,93.18
2019-01-27T01:01:11.362Z,93.28
2019-01-27T01:02:10.647Z,93.07
2019-01-27T01:03:10.649Z,93.59
2019-01-27T01:04:10.625Z,93.18
2019-01-27T01:05:10.653Z,93.18
2019-01-27T01:06:10.642Z,93.28
2019-01-27T01:07:10.595Z,92.76
2019-01-27T01:08:10.631Z,93.07
2019-01-27T01:09:10.618Z,93.38
2019-01-27T01:10:10.635Z,93.59
2019-01-27T01:11:10.613Z,93.90
2019-01-27T01:12:10.591Z,93.59
2019-01-27T01:13:10.530Z,93.59
2019-01-27T01:14:10.528Z,94.00
2019-01-27T01:15:10.507Z,93.18
2019-01-27T01:16:10.509Z,93.07
2019-01-27T01:17:10.510Z,93.59
2019-01-27T01:18:10.482Z,93.28
2019-01-27T01:19:10.526Z,93.12
2019-01-27T01:20:10.499Z,93.69
2019-01-27T01:21:10.541Z,93.63
2019-01-27T01:22:10.466Z,93.69
2019-01-27T01:23:10.433Z,93.79
2019-01-27T01:24:10.430Z,93.12
2019-01-27T01:25:10.635Z,93.73
2019-01-27T01:26:10.406Z,93.73
2019-01-27T01:27:10.446Z,93.53
2019-01-27T01:28:10.366Z,93.59
2019-01-27T01:29:10.375Z,93.18
2019-01-27T01:30:10.375Z,92.86
2019-01-27T01:31:10.338Z,92.86
2019-01-27T01:32:10.329Z,93.28
2019-01-27T01:33:10.349Z,93.38
2019-01-27T01:34:10.325Z,93.38
2019-01-27T01:35:10.296Z,93.79
2019-01-27T01:36:10.373Z,93.38
2019-01-27T01:37:10.371Z,94.42
2019-01-27T01:38:10.319Z,95.28
2019-01-27T01:39:10.428Z,94.82
2019-01-27T01:40:10.242Z,95.70
2019-01-27T01:41:10.242Z,97.25
2019-01-27T01:42:10.319Z,97.55
2019-01-27T01:43:10.219Z,98.07
2019-01-27T01:44:10.224Z,98.49
2019-01-27T01:45:10.202Z,99.21
2019-01-27T01:46:10.266Z,99.31
2019-01-27T01:47:10.236Z,99.46
2019-01-27T01:48:10.161Z,99.66
2019-01-27T01:49:10.180Z,99.66
2019-01-27T01:50:10.171Z,99.66
2019-01-27T01:51:10.228Z,99.56
2019-01-27T01:52:10.113Z,99.99
2019-01-27T01:53:10.249Z,99.99
2019-01-27T01:54:10.221Z,99.99
2019-01-27T01:55:10.089Z,99.99
2019-01-27T01:56:10.073Z,99.99
2019-01-27T01:57:10.105Z,99.99
2019-01-27T01:58:10.054Z,99.99
2019-01-27T01:59:10.075Z,99.99
2019-01-27T02:00:10.116Z,99.99
2019-01-27T02:01:10.031Z,99.99
2019-01-27T02:02:10.008Z,99.99
2019-01-27T02:03:10.040Z,99.99
2019-01-27T02:04:10.217Z,99.99
2019-01-27T02:05:10.066Z,99.99
2019-01-27T02:06:09.979Z,99.99
2019-01-27T02:07:09.988Z,99.99
2019-01-27T02:08:09.971Z,99.99
2019-01-27T02:09:09.932Z,99.99
2019-01-27T02:10:09.967Z,99.99
2019-01-27T02:11:10.025Z,99.99
2019-01-27T02:12:10.011Z,99.99
2019-01-27T02:13:09.927Z,99.99
2019-01-27T02:14:09.880Z,99.99
2019-01-27T02:15:09.899Z,99.99
2019-01-27T02:16:09.881Z,99.99
2019-01-27T02:17:09.848Z,99.99
2019-01-27T02:18:09.890Z,99.99
2019-01-27T02:19:09.826Z,99.99
2019-01-27T02:20:09.831Z,99.99
2019-01-27T02:21:09.857Z,99.99
2019-01-27T02:22:09.794Z,99.99
2019-01-27T02:23:09.847Z,99.99
2019-01-27T02:24:09.782Z,99.99
2019-01-27T02:25:09.786Z,99.99
2019-01-27T02:26:09.803Z,99.99
2019-01-27T02:27:09.808Z,99.99
2019-01-27T02:28:09.726Z,99.99
2019-01-27T02:29:09.793Z,99.99
2019-01-27T02:30:09.778Z,99.99
2019-01-27T02:31:09.725Z,99.99
2019-01-27T02:32:09.688Z,99.99
2019-01-27T02:33:09.675Z,99.99
2019-01-27T02:34:09.673Z,99.99
2019-01-27T02:35:09.809Z,99.99
2019-01-27T02:36:09.680Z,99.99
2019-01-27T02:37:09.633Z,99.98
2019-01-27T02:38:09.692Z,99.99
2019-01-27T02:39:09.619Z,99.99
2019-01-27T02:40:09.601Z,99.35
2019-01-27T02:41:09.747Z,99.77
2019-01-27T02:42:09.595Z,99.35
2019-01-27T02:43:09.585Z,99.46
2019-01-27T02:44:09.557Z,99.77
2019-01-27T02:45:09.623Z,99.35
2019-01-27T02:46:09.548Z,99.66
2019-01-27T02:47:09.552Z,99.46
2019-01-27T02:48:09.524Z,99.46
2019-01-27T02:49:09.618Z,99.46
2019-01-27T02:50:09.522Z,99.15
2019-01-27T02:51:09.485Z,98.94
2019-01-27T02:52:09.554Z,98.53
2019-01-27T02:53:09.516Z,98.84
2019-01-27T02:54:09.451Z,99.05
2019-01-27T02:55:09.438Z,99.15
2019-01-27T02:56:09.431Z,98.22
2019-01-27T02:57:09.578Z,98.22
2019-01-27T02:58:09.425Z,97.81
2019-01-27T02:59:09.439Z,97.60
2019-01-27T03:00:09.391Z,97.29
2019-01-27T03:01:09.384Z,97.60
2019-01-27T03:02:09.566Z,97.34
2019-01-27T03:03:09.394Z,96.88
2019-01-27T03:04:09.349Z,96.73
2019-01-27T03:05:09.535Z,96.26
2019-01-27T03:06:09.412Z,96.47
2019-01-27T03:07:09.310Z,95.95
2019-01-27T03:08:09.401Z,96.62
2019-01-27T03:09:09.321Z,96.62
2019-01-27T03:10:09.294Z,96.11
2019-01-27T03:11:09.518Z,96.26
2019-01-27T03:12:09.265Z,96.31
2019-01-27T03:13:09.370Z,96.42
2019-01-27T03:14:09.346Z,96.01
2019-01-27T03:15:09.225Z,95.28
2019-01-27T03:16:09.215Z,95.39
2019-01-27T03:17:09.335Z,95.80
2019-01-27T03:18:09.207Z,95.28
2019-01-27T03:19:09.209Z,95.59
2019-01-27T03:20:09.174Z,95.59
2019-01-27T03:21:09.259Z,94.87
2019-01-27T03:22:09.162Z,95.28
2019-01-27T03:23:09.149Z,95.59
2019-01-27T03:24:09.160Z,95.28
2019-01-27T03:25:09.133Z,96.31
2019-01-27T03:26:09.157Z,95.07
2019-01-27T03:27:09.118Z,95.39
2019-01-27T03:28:09.095Z,95.28
2019-01-27T03:29:09.108Z,94.87
2019-01-27T03:30:09.070Z,95.18
2019-01-27T03:31:09.234Z,94.35
2019-01-27T03:32:09.196Z,94.97
2019-01-27T03:33:09.039Z,95.07
2019-01-27T03:34:09.106Z,95.24
2019-01-27T03:35:09.030Z,95.18
2019-01-27T03:36:09.041Z,94.97
2019-01-27T03:37:09.031Z,95.34
2019-01-27T03:38:08.980Z,95.49
2019-01-27T03:39:08.981Z,95.28
2019-01-27T03:40:08.991Z,95.39
2019-01-27T03:41:09.033Z,95.49
2019-01-27T03:42:09.012Z,95.28
2019-01-27T03:43:08.931Z,95.55
2019-01-27T03:44:08.925Z,95.28
2019-01-27T03:45:09.070Z,95.28
2019-01-27T03:46:08.923Z,95.03
2019-01-27T03:47:08.929Z,94.77
2019-01-27T03:48:08.910Z,94.15
2019-01-27T03:49:08.883Z,94.82
2019-01-27T03:50:08.850Z,94.21
2019-01-27T03:51:08.871Z,93.79
2019-01-27T03:52:08.930Z,93.49
2019-01-27T03:53:08.832Z,93.28
2019-01-27T03:54:08.892Z,94.21
2019-01-27T03:55:08.797Z,93.38
2019-01-27T03:56:08.820Z,93.38
2019-01-27T03:57:08.786Z,93.79
2019-01-27T03:58:08.803Z,93.18
2019-01-27T03:59:08.753Z,92.86
2019-01-27T04:00:08.785Z,92.72
2019-01-27T04:01:08.765Z,93.34
2019-01-27T04:02:08.780Z,92.93
2019-01-27T04:03:08.711Z,92.51
2019-01-27T04:04:08.703Z,92.66
2019-01-27T04:05:08.726Z,92.41
2019-01-27T04:06:08.706Z,92.10
2019-01-27T04:07:08.685Z,92.41
2019-01-27T04:08:08.732Z,92.21
2019-01-27T04:09:08.796Z,92.55
2019-01-27T04:10:08.648Z,92.46
2019-01-27T04:11:08.763Z,92.14
2019-01-27T04:12:08.629Z,92.55
2019-01-27T04:13:08.613Z,92.14
2019-01-27T04:14:08.626Z,92.55
2019-01-27T04:15:08.583Z,92.35
2019-01-27T04:16:08.605Z,92.66
2019-01-27T04:17:08.601Z,92.60
2019-01-27T04:18:08.554Z,92.50
2019-01-27T04:19:08.552Z,92.29
2019-01-27T04:20:08.616Z,92.50
2019-01-27T04:21:08.536Z,92.70
2019-01-27T04:22:08.714Z,92.19
2019-01-27T04:23:08.507Z,92.40
2019-01-27T04:24:08.628Z,92.40
2019-01-27T04:25:08.498Z,92.70
2019-01-27T04:26:08.469Z,92.50
2019-01-27T04:27:08.489Z,92.60
2019-01-27T04:28:08.447Z,92.40
2019-01-27T04:29:08.500Z,92.50
2019-01-27T04:30:08.429Z,92.40
2019-01-27T04:31:08.458Z,91.77
2019-01-27T04:32:08.479Z,92.70
2019-01-27T04:33:08.396Z,92.60
2019-01-27T04:34:08.386Z,92.40
2019-01-27T04:35:08.538Z,92.19
2019-01-27T04:36:08.366Z,92.74
2019-01-27T04:37:08.351Z,92.40
2019-01-27T04:38:08.362Z,92.50
2019-01-27T04:39:08.459Z,92.50
2019-01-27T04:40:08.320Z,92.50
2019-01-27T04:41:08.315Z,92.40
2019-01-27T04:42:08.301Z,92.60
2019-01-27T04:43:08.328Z,92.29
2019-01-27T04:44:08.331Z,92.40
2019-01-27T04:45:08.289Z,92.40
2019-01-27T04:46:08.293Z,92.19
2019-01-27T04:47:08.247Z,92.40
2019-01-27T04:48:08.240Z,92.60
2019-01-27T04:49:08.355Z,92.50
2019-01-27T04:50:08.221Z,92.50
2019-01-27T04:51:08.285Z,92.70
2019-01-27T04:52:08.190Z,92.70
2019-01-27T04:53:08.233Z,92.25
2019-01-27T04:54:08.198Z,92.29
2019-01-27T04:55:08.179Z,92.29
2019-01-27T04:56:08.256Z,92.29
2019-01-27T04:57:08.138Z,92.08
2019-01-27T04:58:08.144Z,92.40
2019-01-27T04:59:08.138Z,92.40
2019-01-27T05:00:08.104Z,91.98
2019-01-27T05:01:08.113Z,92.19
2019-01-27T05:02:08.092Z,92.55
2019-01-27T05:03:08.074Z,92.19
2019-01-27T05:04:08.138Z,92.35
2019-01-27T05:05:08.078Z,92.40
2019-01-27T05:06:08.038Z,92.50
2019-01-27T05:07:08.114Z,92.50
2019-01-27T05:08:08.048Z,92.50
2019-01-27T05:09:08.353Z,92.80
2019-01-27T05:10:08.043Z,92.64
2019-01-27T05:11:08.001Z,92.95
2019-01-27T05:12:08.008Z,93.37
2019-01-27T05:13:08.035Z,92.95
2019-01-27T05:14:08.031Z,92.74
2019-01-27T05:15:07.959Z,93.16
2019-01-27T05:16:07.968Z,93.68
2019-01-27T05:17:07.921Z,94.19
2019-01-27T05:18:07.991Z,93.47
2019-01-27T05:19:07.929Z,93.78
2019-01-27T05:20:07.897Z,93.98
2019-01-27T05:21:07.908Z,93.93
2019-01-27T05:22:07.880Z,94.13
2019-01-27T05:23:07.968Z,94.44
2019-01-27T05:24:07.912Z,94.85
2019-01-27T05:25:08.042Z,94.13
2019-01-27T05:26:07.829Z,94.44
2019-01-27T05:27:07.857Z,94.60
2019-01-27T05:28:07.808Z,94.65
2019-01-27T05:29:07.886Z,94.09
2019-01-27T05:30:07.798Z,94.19
2019-01-27T05:31:07.788Z,94.29
2019-01-27T05:32:07.993Z,94.29
2019-01-27T05:33:07.762Z,94.71
2019-01-27T05:34:07.749Z,94.29
2019-01-27T05:35:07.761Z,94.60
2019-01-27T05:36:07.946Z,94.15
2019-01-27T05:37:07.725Z,94.60
2019-01-27T05:38:07.800Z,94.71
2019-01-27T05:39:07.707Z,94.71
2019-01-27T05:40:07.708Z,94.81
2019-01-27T05:41:07.669Z,94.60
2019-01-27T05:42:07.701Z,94.60
2019-01-27T05:43:07.646Z,95.22
2019-01-27T05:44:07.644Z,94.60
2019-01-27T05:45:07.721Z,95.22
2019-01-27T05:46:07.647Z,94.71
2019-01-27T05:47:07.692Z,95.22
2019-01-27T05:48:07.644Z,95.02
2019-01-27T05:49:07.707Z,95.32
2019-01-27T05:50:07.576Z,95.43
2019-01-27T05:51:07.634Z,95.64
2019-01-27T05:52:07.554Z,95.53
2019-01-27T05:53:07.537Z,95.32
2019-01-27T05:54:07.693Z,95.43
2019-01-27T05:55:07.578Z,95.12
2019-01-27T05:56:07.543Z,94.92
2019-01-27T05:57:07.508Z,95.43
2019-01-27T05:58:07.546Z,95.02
2019-01-27T05:59:07.539Z,95.32
2019-01-27T06:00:07.469Z,95.99
2019-01-27T06:01:07.604Z,95.89
2019-01-27T06:02:07.449Z,96.72
2019-01-27T06:03:07.438Z,96.20
2019-01-27T06:04:07.433Z,96.67
2019-01-27T06:05:07.509Z,96.26
2019-01-27T06:06:07.465Z,96.20
2019-01-27T06:07:07.388Z,96.92
2019-01-27T06:08:07.384Z,96.36
2019-01-27T06:09:07.425Z,96.56
2019-01-27T06:10:07.383Z,96.51
2019-01-27T06:11:07.466Z,96.67
2019-01-27T06:12:07.335Z,96.61
2019-01-27T06:13:07.327Z,96.26
2019-01-27T06:14:07.393Z,96.51
2019-01-27T06:15:07.303Z,96.41
2019-01-27T06:16:07.516Z,96.72
2019-01-27T06:17:07.503Z,96.82
2019-01-27T06:18:07.273Z,97.33
2019-01-27T06:19:07.396Z,96.92
2019-01-27T06:20:07.276Z,97.33
2019-01-27T06:21:07.283Z,97.02
2019-01-27T06:22:07.231Z,97.23
2019-01-27T06:23:07.216Z,97.17
2019-01-27T06:24:07.210Z,97.75
2019-01-27T06:25:07.200Z,97.54
2019-01-27T06:26:07.303Z,97.69
2019-01-27T06:27:07.234Z,97.49
2019-01-27T06:28:07.269Z,97.59
2019-01-27T06:29:07.236Z,97.69
2019-01-27T06:30:07.154Z,98.10
2019-01-27T06:31:07.166Z,98.21
2019-01-27T06:32:07.124Z,97.79
2019-01-27T06:33:07.118Z,97.59
2019-01-27T06:34:07.374Z,97.79
2019-01-27T06:35:07.092Z,97.38
2019-01-27T06:36:07.114Z,97.49
2019-01-27T06:37:07.108Z,97.53
2019-01-27T06:38:07.119Z,97.69
2019-01-27T06:39:07.212Z,97.59
2019-01-27T06:40:07.059Z,97.69
2019-01-27T06:41:07.099Z,97.69
2019-01-27T06:42:07.027Z,97.69
2019-01-27T06:43:07.033Z,98.10
2019-01-27T06:44:06.996Z,97.07
2019-01-27T06:45:07.037Z,97.69
2019-01-27T06:46:07.149Z,97.79
2019-01-27T06:47:07.047Z,97.89
2019-01-27T06:48:06.957Z,97.79
2019-01-27T06:49:06.965Z,97.69
2019-01-27T06:50:06.953Z,97.63
2019-01-27T06:51:06.942Z,97.59
2019-01-27T06:52:06.935Z,97.49
2019-01-27T06:53:06.926Z,96.97
2019-01-27T06:54:06.902Z,96.97
2019-01-27T06:55:06.877Z,97.17
2019-01-27T06:56:06.896Z,96.97
2019-01-27T06:57:06.976Z,97.07
2019-01-27T06:58:06.895Z,97.17
2019-01-27T06:59:06.837Z,97.17
2019-01-27T07:00:06.835Z,97.07
2019-01-27T07:01:06.850Z,97.02
2019-01-27T07:02:06.809Z,97.02
2019-01-27T07:03:06.813Z,97.33
2019-01-27T07:04:06.837Z,96.41
2019-01-27T07:05:06.776Z,96.51
2019-01-27T07:06:06.762Z,96.09
2019-01-27T07:07:06.904Z,96.41
2019-01-27T07:08:06.740Z,96.30
2019-01-27T07:09:06.778Z,96.72
2019-01-27T07:10:06.715Z,96.72
2019-01-27T07:11:06.748Z,96.51
2019-01-27T07:12:06.726Z,96.82
2019-01-27T07:13:06.717Z,96.30
2019-01-27T07:14:06.721Z,95.32
2019-01-27T07:15:06.745Z,95.32
2019-01-27T07:16:06.651Z,94.92
2019-01-27T07:17:06.667Z,95.12
2019-01-27T07:18:06.648Z,94.40
2019-01-27T07:19:06.628Z,94.50
2019-01-27T07:20:06.614Z,94.35
2019-01-27T07:21:06.608Z,95.12
2019-01-27T07:22:06.679Z,94.46
2019-01-27T07:23:06.664Z,93.32
2019-01-27T07:24:06.695Z,93.32
2019-01-27T07:25:06.707Z,93.63
2019-01-27T07:26:06.553Z,93.32
2019-01-27T07:27:06.578Z,92.97
2019-01-27T07:28:06.579Z,93.12
2019-01-27T07:29:06.514Z,93.43
2019-01-27T07:30:06.519Z,93.63
2019-01-27T07:31:06.506Z,93.22
2019-01-27T07:32:06.615Z,93.43
2019-01-27T07:33:06.561Z,93.69
2019-01-27T07:34:06.559Z,93.07
2019-01-27T07:35:06.449Z,93.28
2019-01-27T07:36:06.528Z,93.22
2019-01-27T07:37:06.445Z,93.12
2019-01-27T07:38:06.470Z,93.12
2019-01-27T07:39:06.509Z,92.80
2019-01-27T07:40:06.487Z,93.12
2019-01-27T07:41:06.387Z,92.80
2019-01-27T07:42:06.397Z,93.12
2019-01-27T07:43:06.391Z,93.22
2019-01-27T07:44:06.368Z,93.88
2019-01-27T07:45:06.361Z,93.78
2019-01-27T07:46:06.354Z,93.94
2019-01-27T07:47:06.519Z,94.35
2019-01-27T07:48:06.372Z,93.94
2019-01-27T07:49:06.317Z,94.04
2019-01-27T07:50:06.355Z,94.40
2019-01-27T07:51:06.312Z,94.71
2019-01-27T07:52:06.269Z,94.40
2019-01-27T07:53:06.260Z,94.92
2019-01-27T07:54:06.325Z,94.81
2019-01-27T07:55:06.243Z,95.02
2019-01-27T07:56:06.235Z,95.43
2019-01-27T07:57:06.272Z,95.22
2019-01-27T07:58:06.218Z,95.02
2019-01-27T07:59:06.280Z,95.12
2019-01-27T08:00:06.195Z,94.25
2019-01-27T08:01:06.223Z,94.97
2019-01-27T08:02:06.179Z,94.67
2019-01-27T08:03:11.917Z,94.77
2019-01-27T08:04:07.173Z,95.12
2019-01-27T08:05:06.141Z,94.50
2019-01-27T08:06:06.126Z,94.50
2019-01-27T08:07:06.108Z,94.19
2019-01-27T08:08:06.170Z,94.29
2019-01-27T08:09:06.109Z,94.40
2019-01-27T08:10:06.121Z,94.09
2019-01-27T08:11:06.074Z,94.50
2019-01-27T08:12:06.361Z,94.50
2019-01-27T08:13:06.053Z,94.40
2019-01-27T08:14:06.068Z,94.13
2019-01-27T08:15:06.306Z,94.44
2019-01-27T08:16:06.041Z,94.29
2019-01-27T08:17:06.008Z,94.65
2019-01-27T08:18:06.034Z,95.06
2019-01-27T08:19:05.999Z,94.03
2019-01-27T08:20:06.003Z,94.85
2019-01-27T08:21:05.961Z,94.96
2019-01-27T08:22:05.950Z,95.17
2019-01-27T08:23:06.017Z,94.96
2019-01-27T08:24:05.936Z,94.65
2019-01-27T08:25:05.920Z,94.44
2019-01-27T08:26:05.941Z,94.81
2019-01-27T08:27:05.968Z,94.40
2019-01-27T08:28:05.994Z,95.02
2019-01-27T08:29:05.877Z,95.64
2019-01-27T08:30:05.922Z,95.59
2019-01-27T08:31:05.874Z,94.82
2019-01-27T08:32:05.855Z,94.31
2019-01-27T08:33:05.869Z,94.37
2019-01-27T08:34:05.889Z,94.17
2019-01-27T08:35:05.868Z,93.85
2019-01-27T08:36:05.846Z,93.96
2019-01-27T08:37:05.836Z,94.99
2019-01-27T08:38:05.780Z,94.78
2019-01-27T08:39:05.776Z,94.27
2019-01-27T08:40:05.767Z,94.27
2019-01-27T08:41:05.856Z,94.12
2019-01-27T08:42:05.815Z,93.85
2019-01-27T08:43:05.739Z,94.12
2019-01-27T08:44:05.758Z,93.91
2019-01-27T08:45:05.750Z,93.87
2019-01-27T08:46:05.729Z,93.25
2019-01-27T08:47:05.722Z,93.56
2019-01-27T08:48:05.674Z,92.12
2019-01-27T08:49:05.707Z,92.02
2019-01-27T08:50:05.659Z,92.33
2019-01-27T08:51:05.708Z,91.60
2019-01-27T08:52:05.736Z,92.49
2019-01-27T08:53:05.644Z,91.87
2019-01-27T08:54:05.645Z,91.56
2019-01-27T08:55:05.696Z,92.59
2019-01-27T08:56:05.633Z,92.38
2019-01-27T08:57:05.578Z,92.08
2019-01-27T08:58:05.621Z,90.73
2019-01-27T08:59:05.564Z,90.22
2019-01-27T09:00:05.685Z,89.50
2019-01-27T09:01:05.890Z,89.19
2019-01-27T09:02:05.529Z,87.44
2019-01-27T09:03:05.535Z,88.47
2019-01-27T09:04:05.549Z,88.06
2019-01-27T09:05:05.496Z,87.54
2019-01-27T09:06:05.554Z,86.82
2019-01-27T09:07:05.486Z,85.34
2019-01-27T09:08:05.540Z,85.96
2019-01-27T09:09:05.451Z,86.37
2019-01-27T09:10:05.445Z,85.14
2019-01-27T09:11:05.426Z,84.72
2019-01-27T09:12:05.451Z,84.52
2019-01-27T09:13:11.149Z,84.62
2019-01-27T09:14:06.427Z,83.45
2019-01-27T09:15:05.454Z,84.27
2019-01-27T09:16:05.421Z,84.27
2019-01-27T09:17:05.376Z,84.07
2019-01-27T09:18:05.393Z,83.14
2019-01-27T09:19:05.395Z,82.73
2019-01-27T09:20:05.338Z,83.04
2019-01-27T09:21:05.390Z,82.83
2019-01-27T09:22:05.389Z,82.63
2019-01-27T09:23:05.428Z,82.21
2019-01-27T09:24:05.374Z,82.90
2019-01-27T09:25:05.326Z,82.39
2019-01-27T09:26:05.276Z,81.15
2019-01-27T09:27:05.348Z,81.29
2019-01-27T09:28:05.291Z,81.15
2019-01-27T09:29:05.394Z,82.90
2019-01-27T09:30:05.314Z,82.93
2019-01-27T09:31:05.405Z,81.87
2019-01-27T09:32:05.210Z,81.76
2019-01-27T09:33:05.192Z,82.28
2019-01-27T09:34:05.250Z,83.00
2019-01-27T09:35:05.171Z,81.46
2019-01-27T09:36:05.266Z,81.67
2019-01-27T09:37:05.323Z,82.28
2019-01-27T09:38:05.156Z,82.59
2019-01-27T09:39:05.141Z,82.69
2019-01-27T09:40:05.140Z,81.76
2019-01-27T09:41:05.157Z,82.69
2019-01-27T09:42:05.134Z,82.48
2019-01-27T09:43:05.102Z,82.48
2019-01-27T09:44:05.081Z,81.97
2019-01-27T09:45:05.121Z,82.90
2019-01-27T09:46:10.131Z,82.59
2019-01-27T09:47:06.210Z,82.59
2019-01-27T09:48:05.090Z,82.07
2019-01-27T09:49:05.024Z,81.76
2019-01-27T09:50:05.083Z,81.05
2019-01-27T09:51:05.046Z,81.25
2019-01-27T09:52:05.020Z,81.56
2019-01-27T09:53:04.980Z,82.24
2019-01-27T09:54:05.057Z,81.21
2019-01-27T09:55:04.970Z,80.70
2019-01-27T09:56:04.982Z,81.11
2019-01-27T09:57:04.981Z,79.98
2019-01-27T09:58:04.955Z,80.66
2019-01-27T09:59:04.961Z,80.46
2019-01-27T10:00:04.907Z,80.46
2019-01-27T10:01:04.894Z,79.94
2019-01-27T10:02:05.025Z,80.05
2019-01-27T10:03:04.902Z,80.25
2019-01-27T10:04:04.886Z,80.15
2019-01-27T10:05:04.881Z,80.35
2019-01-27T10:06:04.905Z,80.97
2019-01-27T10:07:04.885Z,80.77
2019-01-27T10:08:04.855Z,80.77
2019-01-27T10:09:04.819Z,80.66
2019-01-27T10:10:05.009Z,80.35
2019-01-27T10:11:04.931Z,80.87
2019-01-27T10:12:04.778Z,80.66
2019-01-27T10:13:04.866Z,80.77
2019-01-27T10:14:04.773Z,80.15
2019-01-27T10:15:04.749Z,80.56
2019-01-27T10:16:04.735Z,80.56
2019-01-27T10:17:04.792Z,80.46
2019-01-27T10:18:04.752Z,80.35
2019-01-27T10:19:04.703Z,79.22
2019-01-27T10:20:04.705Z,79.12
2019-01-27T10:21:04.703Z,79.84
2019-01-27T10:22:04.703Z,79.94
2019-01-27T10:23:04.684Z,79.19
2019-01-27T10:24:04.649Z,79.33
2019-01-27T10:25:04.741Z,79.53
2019-01-27T10:26:04.672Z,78.92
2019-01-27T10:27:04.671Z,78.61
2019-01-27T10:28:04.649Z,78.40
2019-01-27T10:29:04.730Z,78.71
2019-01-27T10:30:04.581Z,79.12
2019-01-27T10:31:04.612Z,78.20
2019-01-27T10:32:04.561Z,79.22
2019-01-27T10:33:04.574Z,78.71
2019-01-27T10:34:04.682Z,78.40
2019-01-27T10:35:04.566Z,79.74
2019-01-27T10:36:04.613Z,79.33
2019-01-27T10:37:11.844Z,78.40
2019-01-27T10:38:05.510Z,78.40
2019-01-27T10:39:04.599Z,78.20
2019-01-27T10:40:09.119Z,79.43
2019-01-27T10:41:05.542Z,79.33
2019-01-27T10:42:04.450Z,78.50
2019-01-27T10:43:04.467Z,79.29
2019-01-27T10:44:04.487Z,78.92
2019-01-27T10:45:04.445Z,79.63
2019-01-27T10:46:04.430Z,78.50
2019-01-27T10:47:04.532Z,79.33
2019-01-27T10:48:04.414Z,79.43
2019-01-27T10:49:04.440Z,79.33
2019-01-27T10:50:04.414Z,79.84
2019-01-27T10:51:04.371Z,79.94
2019-01-27T10:52:05.509Z,79.12
2019-01-27T10:53:04.331Z,80.05
2019-01-27T10:54:04.341Z,79.53
2019-01-27T10:55:04.351Z,79.43
2019-01-27T10:56:04.482Z,80.05
2019-01-27T10:57:04.470Z,79.33
2019-01-27T10:58:04.432Z,79.91
2019-01-27T10:59:04.320Z,79.43
2019-01-27T11:00:04.638Z,79.12
2019-01-27T11:01:04.272Z,79.70
2019-01-27T11:02:04.234Z,79.49
2019-01-27T11:03:04.249Z,80.21
2019-01-27T11:04:04.392Z,79.29
2019-01-27T11:05:04.309Z,80.73
2019-01-27T11:06:04.262Z,79.49
2019-01-27T11:07:04.207Z,79.08
2019-01-27T11:08:04.274Z,79.84
2019-01-27T11:09:04.244Z,79.29
2019-01-27T11:10:04.151Z,80.32
2019-01-27T11:11:04.145Z,79.49
2019-01-27T11:12:04.176Z,79.60
2019-01-27T11:13:04.165Z,79.43
2019-01-27T11:14:04.107Z,78.30
2019-01-27T11:15:04.211Z,80.21
2019-01-27T11:16:04.106Z,79.33
2019-01-27T11:17:04.118Z,78.61
2019-01-27T11:18:04.104Z,79.63
2019-01-27T11:19:04.053Z,78.30
2019-01-27T11:20:04.053Z,78.50
2019-01-27T11:21:04.033Z,78.81
2019-01-27T11:22:04.065Z,79.22
2019-01-27T11:23:04.078Z,78.81
2019-01-27T11:24:04.479Z,79.74
2019-01-27T11:25:04.032Z,80.46
2019-01-27T11:26:04.035Z,79.02
2019-01-27T11:27:04.065Z,79.12
2019-01-27T11:28:04.002Z,79.33
2019-01-27T11:29:03.996Z,79.33
2019-01-27T11:30:03.936Z,79.26
2019-01-27T11:31:03.934Z,80.91
2019-01-27T11:32:03.991Z,79.88
2019-01-27T11:33:03.947Z,79.16
2019-01-27T11:34:03.908Z,79.57
2019-01-27T11:35:03.899Z,80.39
2019-01-27T11:36:03.882Z,80.08
2019-01-27T11:37:03.861Z,80.49
2019-01-27T11:38:04.042Z,80.19
2019-01-27T11:39:03.842Z,80.19
2019-01-27T11:40:03.836Z,81.01
2019-01-27T11:41:03.821Z,79.98
2019-01-27T11:42:03.818Z,80.70
2019-01-27T11:43:03.910Z,80.29
2019-01-27T11:44:03.807Z,80.39
2019-01-27T11:45:03.789Z,80.80
2019-01-27T11:46:03.779Z,80.70
2019-01-27T11:47:03.788Z,81.32
2019-01-27T11:48:03.795Z,80.66
2019-01-27T11:49:03.815Z,80.66
2019-01-27T11:50:03.730Z,80.97
2019-01-27T11:51:03.707Z,80.56
2019-01-27T11:52:03.752Z,80.46
2019-01-27T11:53:03.690Z,80.97
2019-01-27T11:54:03.729Z,80.35
2019-01-27T11:55:03.828Z,79.33
2019-01-27T11:56:03.736Z,79.74
2019-01-27T11:57:03.664Z,79.02
2019-01-27T11:58:03.637Z,79.63
2019-01-27T11:59:03.651Z,79.53
2019-01-27T12:00:03.612Z,79.84
2019-01-27T12:01:03.634Z,79.12
2019-01-27T12:02:03.599Z,79.39
2019-01-27T12:03:03.596Z,78.88
2019-01-27T12:04:03.705Z,79.39
2019-01-27T12:05:03.605Z,79.29
2019-01-27T12:06:03.598Z,79.56
2019-01-27T12:07:03.588Z,78.23
2019-01-27T12:08:03.594Z,78.85
2019-01-27T12:09:03.520Z,78.33
2019-01-27T12:10:03.588Z,78.23
2019-01-27T12:11:03.525Z,78.39
2019-01-27T12:12:03.523Z,79.25
2019-01-27T12:13:03.587Z,77.98
2019-01-27T12:14:03.527Z,78.12
2019-01-27T12:15:03.586Z,77.61
2019-01-27T12:16:03.445Z,78.74
2019-01-27T12:17:03.439Z,78.53
2019-01-27T12:18:03.468Z,77.81
2019-01-27T12:19:03.465Z,78.33
2019-01-27T12:20:03.462Z,78.33
2019-01-27T12:21:03.420Z,78.33
2019-01-27T12:22:03.412Z,78.43
2019-01-27T12:23:03.424Z,78.36
2019-01-27T12:24:03.398Z,78.64
2019-01-27T12:25:03.360Z,77.95
2019-01-27T12:26:03.433Z,78.43
2019-01-27T12:27:03.331Z,77.92
2019-01-27T12:28:03.338Z,77.20
2019-01-27T12:29:03.395Z,77.81
2019-01-27T12:30:03.349Z,77.81
2019-01-27T12:31:03.289Z,78.29
2019-01-27T12:32:03.272Z,77.81
2019-01-27T12:33:03.299Z,76.86
2019-01-27T12:34:03.274Z,76.86
2019-01-27T12:35:03.241Z,77.26
2019-01-27T12:36:03.302Z,76.86
2019-01-27T12:37:03.218Z,76.96
2019-01-27T12:38:03.210Z,77.17
2019-01-27T12:39:03.207Z,77.81
2019-01-27T12:40:03.316Z,77.51
2019-01-27T12:41:03.358Z,77.78
2019-01-27T12:42:03.164Z,77.78
2019-01-27T12:43:03.154Z,77.26
2019-01-27T12:44:03.142Z,77.98
2019-01-27T12:45:03.226Z,77.78
2019-01-27T12:46:03.170Z,77.98
2019-01-27T12:47:03.172Z,77.68
2019-01-27T12:48:03.115Z,77.74
2019-01-27T12:49:03.093Z,76.51
2019-01-27T12:50:03.092Z,76.62
2019-01-27T12:51:03.087Z,76.20
2019-01-27T12:52:03.093Z,76.58